Flight Information

DEPARTURE
SANTA MARIA, CA
Elevation:
261
Runways:
12/30 - 8004x150 - ASPH-G
2/20 - 5199x75 - ASPH-G
Active PE Departure:
30
Current PE ATIS:
S
Altimeter:
30.01
Remarks:
ATIS:
121.15 805-347-9136
Ground:
121.9
Tower:
118.3
DESTINATION
,
Elevation:
TPA:
1000 (est.)


6873.7 NM71° True-14° Var57° HDG

Flight Plan:
(click to file on line)

1. Type
2. Aircraft Identification
3. Aircraft Type / Special Equipment
4. True Airspeed
kts
5. Departure Airport
(ICAO code)
6. Arriving Airport
(ICAO code)
7. Cruising Altitude
ft
8. Alternate Airport
(ICAO code)
9. Route of Flight
10. Remarks


00:00:00 Departure ATIS: Destination ATIS:

Clearance Limit:
Route:
Altitude: Expect in minutes
Frequency:
Transponder: (7500 Hijack / 7600 Lost Comms / 7700 Emergency)


KSMX 221551Z 10003KT 10SM FEW032 FEW070 BKN090 09/07 A3001 RMK AO2 SLP167 T00890067
Time: 2021-01-22T15:51:00Z
1611332112
Winds: 100 @ 3 kts
Visibility: 10.0 sm
Clouds (AGL): FEW 3200
FEW 7000
BKN 9000
Temperature: 8.9 C
Dew Point: 6.7 C
Pressure: 30.008858 in Hgbr


Notes:

Data extracted from FAA Digital Chart Supplement. Effective: 0901Z Thursday, Dec 31, 2020 to 0901Z Thursday, Jan 28, 2021
Current ATIS data is provided courtisy of PilotEdge.